Time;durP1;ratioP1;P1;durP2;ratioP2;P2;SDS_P1;SDS_P2;PMS_P1;PMS_P2;Temp;Humidity;BMP_temperature;BMP_pressure;BME280_temperature;BME280_humidity;BME280_pressure;Samples;Min_cycle;Max_cycle;Signal;HPM_P1;HPM_P2
2022/09/24 00:01:19;;;;;;;3.17;2.13;;;16.20;71.40;;;;;;5073456;28;20040;-64
2022/09/24 00:03:51;;;;;;;4.32;1.98;;;16.20;71.90;;;;;;5073775;28;20392;-65
2022/09/24 00:06:19;;;;;;;6.53;2.23;;;16.20;71.80;;;;;;5073271;28;20024;-64
2022/09/24 00:08:50;;;;;;;6.57;2.17;;;16.20;71.90;;;;;;5072960;28;20108;-64
2022/09/24 00:11:18;;;;;;;4.68;2.63;;;16.20;72.00;;;;;;5073284;28;20428;-64
2022/09/24 00:13:44;;;;;;;6.38;2.03;;;16.20;72.10;;;;;;5073042;28;20024;-64
2022/09/24 00:16:13;;;;;;;8.68;2.22;;;16.20;72.50;;;;;;5073225;28;20029;-64
2022/09/24 00:18:39;;;;;;;5.95;2.20;;;16.20;72.60;;;;;;5073041;28;20474;-64
2022/09/24 00:21:22;;;;;;;3.67;1.98;;;16.20;72.60;;;;;;5073272;28;20024;-65
2022/09/24 00:23:50;;;;;;;6.55;2.20;;;16.20;72.60;;;;;;5073344;28;20028;-64
2022/09/24 00:29:00;;;;;;;5.70;2.40;;;16.20;72.70;;;;;;5073340;28;20031;-64
2022/09/24 00:31:26;;;;;;;3.45;2.10;;;16.20;72.60;;;;;;5072928;28;20025;-64
2022/09/24 00:33:53;;;;;;;4.22;2.10;;;16.20;72.70;;;;;;5072618;28;20020;-69
2022/09/24 00:36:20;;;;;;;4.65;2.40;;;16.20;73.00;;;;;;5072523;28;20028;-64
2022/09/24 00:38:51;;;;;;;4.55;2.10;;;16.10;73.10;;;;;;5072926;28;20104;-65
2022/09/24 00:41:22;;;;;;;6.50;2.20;;;16.10;73.00;;;;;;5072861;28;20580;-65
2022/09/24 00:43:49;;;;;;;3.30;2.17;;;16.10;73.10;;;;;;5072344;28;20028;-65
2022/09/24 00:46:39;;;;;;;3.75;2.20;;;16.10;73.40;;;;;;5072221;28;20062;-65
2022/09/24 00:49:16;;;;;;;5.47;1.88;;;16.10;73.50;;;;;;5072723;28;20024;-65
2022/09/24 00:51:46;;;;;;;5.10;2.08;;;16.20;73.50;;;;;;5072760;28;20020;-64
2022/09/24 00:54:25;;;;;;;6.85;2.33;;;16.10;73.40;;;;;;5072853;28;20032;-65
2022/09/24 00:56:52;;;;;;;7.75;2.50;;;16.10;73.50;;;;;;5072445;28;20517;-64
2022/09/24 00:59:22;;;;;;;4.43;2.53;;;16.10;73.40;;;;;;5070058;28;20033;-65
2022/09/24 01:01:57;;;;;;;4.32;2.17;;;16.10;73.70;;;;;;5070125;28;20048;-65
2022/09/24 01:04:27;;;;;;;5.78;1.90;;;16.10;74.00;;;;;;5070747;28;20467;-65
2022/09/24 01:06:54;;;;;;;6.78;2.25;;;16.10;74.20;;;;;;5073335;28;20041;-64
2022/09/24 01:09:22;;;;;;;4.18;2.05;;;16.10;73.80;;;;;;5075429;28;20380;-64
2022/09/24 01:11:48;;;;;;;6.07;2.40;;;16.10;73.90;;;;;;5076900;28;20028;-64
2022/09/24 01:14:38;;;;;;;6.57;2.00;;;16.10;73.90;;;;;;5076063;28;20029;-65
2022/09/24 01:17:36;;;;;;;4.65;2.30;;;16.10;74.10;;;;;;5076608;28;20063;-64
2022/09/24 01:20:36;;;;;;;3.15;2.05;;;16.10;74.10;;;;;;5075619;28;20029;-64
2022/09/24 01:23:40;;;;;;;6.57;1.88;;;16.10;74.00;;;;;;5076305;28;20029;-65
2022/09/24 01:26:05;;;;;;;4.93;2.00;;;16.10;73.90;;;;;;5076187;28;20037;-64
2022/09/24 01:28:54;;;;;;;5.18;1.90;;;16.10;74.00;;;;;;5075837;28;20032;-64
2022/09/24 01:31:29;;;;;;;5.85;1.95;;;16.10;74.10;;;;;;5076108;28;20031;-65
2022/09/24 01:33:58;;;;;;;3.78;1.85;;;16.10;74.10;;;;;;5076137;28;20569;-65
2022/09/24 01:36:25;;;;;;;4.35;2.40;;;16.10;74.00;;;;;;5075819;28;20063;-64
2022/09/24 01:38:53;;;;;;;3.42;2.00;;;16.10;74.10;;;;;;5075967;28;20037;-65
2022/09/24 01:41:21;;;;;;;8.18;1.88;;;16.10;74.30;;;;;;5074908;28;20104;-66
2022/09/24 01:43:48;;;;;;;4.13;2.10;;;16.10;74.20;;;;;;5076027;28;20399;-72
2022/09/24 01:46:18;;;;;;;6.22;2.00;;;16.00;74.00;;;;;;5076002;28;20032;-73
2022/09/24 01:48:44;;;;;;;5.25;2.05;;;16.00;74.10;;;;;;5075538;28;20412;-65
2022/09/24 01:51:17;;;;;;;5.30;1.60;;;16.00;74.00;;;;;;5075864;28;20033;-65
2022/09/24 01:54:08;;;;;;;3.72;2.08;;;16.10;74.30;;;;;;5075939;28;20028;-65
2022/09/24 01:56:51;;;;;;;6.40;1.80;;;16.10;74.20;;;;;;5075621;28;20045;-65
2022/09/24 01:59:20;;;;;;;;;;;16.00;74.40;;;;;;5075745;28;20074;-65
2022/09/24 02:01:55;;;;;;;2.35;1.48;;;16.00;74.20;;;;;;5075767;28;20009;-64
2022/09/24 02:04:23;;;;;;;2.22;1.80;;;16.00;74.20;;;;;;5075509;28;20035;-65
2022/09/24 02:06:55;;;;;;;4.28;1.60;;;16.00;74.40;;;;;;5075214;28;20033;-65
2022/09/24 02:09:39;;;;;;;2.63;1.50;;;16.10;74.60;;;;;;5074844;28;20024;-65
2022/09/24 02:12:10;;;;;;;3.00;1.88;;;16.00;74.30;;;;;;5075386;28;20059;-65
2022/09/24 02:14:43;;;;;;;6.20;1.58;;;16.00;73.90;;;;;;5075147;28;20111;-65
2022/09/24 02:17:09;;;;;;;4.10;1.90;;;16.10;73.90;;;;;;5075489;28;20021;-64
2022/09/24 02:19:38;;;;;;;2.33;2.00;;;16.00;73.90;;;;;;5075217;28;20037;-65
2022/09/24 02:22:06;;;;;;;3.25;1.80;;;16.00;74.20;;;;;;5075453;28;20466;-64
2022/09/24 02:24:54;;;;;;;2.85;1.88;;;16.00;74.30;;;;;;5075528;28;20137;-65
2022/09/24 02:27:20;;;;;;;6.20;1.80;;;15.90;74.50;;;;;;5075277;28;20029;-72
2022/09/24 02:29:46;;;;;;;4.15;1.85;;;15.90;74.60;;;;;;5075278;28;20027;-64
2022/09/24 02:32:16;;;;;;;2.75;1.70;;;15.90;74.70;;;;;;5075286;28;20151;-72
2022/09/24 02:34:50;;;;;;;3.00;2.10;;;15.90;74.80;;;;;;5075121;28;20428;-64
2022/09/24 02:37:16;;;;;;;3.05;1.80;;;15.90;75.20;;;;;;5075342;28;20028;-64
2022/09/24 02:39:42;;;;;;;3.83;1.70;;;15.90;75.40;;;;;;5075120;28;20035;-64
2022/09/24 02:42:13;;;;;;;5.90;2.22;;;15.90;75.40;;;;;;5074963;28;20425;-64
2022/09/24 02:44:39;;;;;;;4.28;2.03;;;15.90;75.30;;;;;;5074835;28;20070;-65
2022/09/24 02:47:05;;;;;;;3.47;1.98;;;15.90;75.20;;;;;;5075081;28;20417;-65
2022/09/24 02:49:32;;;;;;;2.42;1.85;;;15.90;75.30;;;;;;5075214;28;20032;-65
2022/09/24 02:51:57;;;;;;;3.40;2.05;;;15.90;75.60;;;;;;5074716;28;20045;-63
2022/09/24 02:54:24;;;;;;;3.10;1.83;;;15.90;75.50;;;;;;5074672;28;20028;-64
2022/09/24 02:56:50;;;;;;;4.28;1.60;;;15.80;75.60;;;;;;5074881;28;20048;-64
2022/09/24 02:59:15;;;;;;;4.85;1.92;;;15.90;75.60;;;;;;5074773;28;20070;-64
2022/09/24 03:01:41;;;;;;;4.00;1.77;;;15.90;75.50;;;;;;5074729;28;20028;-65
2022/09/24 03:04:07;;;;;;;4.18;1.90;;;15.80;75.50;;;;;;5074632;28;20025;-64
2022/09/24 03:06:33;;;;;;;5.22;2.17;;;15.80;75.60;;;;;;5074343;28;20532;-65
2022/09/24 03:09:01;;;;;;;5.50;1.90;;;15.80;75.80;;;;;;5074696;28;20063;-64
2022/09/24 03:11:27;;;;;;;6.78;1.80;;;15.80;76.00;;;;;;5074473;28;20479;-64
2022/09/24 03:13:53;;;;;;;3.50;2.00;;;15.80;75.90;;;;;;5074489;28;20016;-64
2022/09/24 03:16:19;;;;;;;2.83;1.60;;;15.80;76.00;;;;;;5074255;28;20390;-64
2022/09/24 03:18:46;;;;;;;4.88;1.90;;;15.80;76.30;;;;;;5074248;28;20016;-64
2022/09/24 03:21:14;;;;;;;5.65;2.03;;;15.80;76.30;;;;;;5074268;28;20028;-65
2022/09/24 03:23:40;;;;;;;2.67;1.90;;;15.80;76.40;;;;;;5074412;28;20025;-64
2022/09/24 03:26:06;;;;;;;3.45;1.70;;;15.80;76.50;;;;;;5073856;28;20039;-64
2022/09/24 03:28:32;;;;;;;2.72;1.63;;;15.80;76.20;;;;;;5073843;28;20024;-66
2022/09/24 03:31:00;;;;;;;7.78;1.90;;;15.80;76.60;;;;;;5073290;28;20127;-64
2022/09/24 03:33:40;;;;;;;3.78;1.80;;;15.80;76.40;;;;;;5074007;28;20028;-65
2022/09/24 03:36:16;;;;;;;2.25;1.65;;;15.80;75.50;;;;;;5074002;28;20033;-64
2022/09/24 03:38:44;;;;;;;4.10;1.60;;;15.90;75.40;;;;;;5073916;28;20155;-64
2022/09/24 03:41:11;;;;;;;2.60;1.60;;;15.80;75.30;;;;;;5073870;28;20024;-64
2022/09/24 03:43:37;;;;;;;4.32;1.63;;;15.80;75.30;;;;;;5073708;28;20390;-65
2022/09/24 03:46:05;;;;;;;4.18;1.50;;;15.90;75.50;;;;;;5073998;28;20037;-64
2022/09/24 03:48:33;;;;;;;4.13;1.38;;;15.90;75.40;;;;;;5073758;28;20043;-73
2022/09/24 03:51:06;;;;;;;3.85;1.50;;;15.90;75.50;;;;;;5073605;28;20056;-65
2022/09/24 03:53:33;;;;;;;5.88;1.38;;;15.90;75.30;;;;;;5073670;28;20036;-72
2022/09/24 03:56:01;;;;;;;2.30;1.48;;;15.90;75.20;;;;;;5073099;28;20064;-65
2022/09/24 03:58:28;;;;;;;3.80;1.42;;;15.90;75.20;;;;;;5073719;28;20017;-64
2022/09/24 04:00:56;;;;;;;3.53;1.63;;;15.90;75.10;;;;;;5073650;28;20040;-64
2022/09/24 04:03:22;;;;;;;3.05;1.73;;;15.80;75.00;;;;;;5073216;28;20074;-65
2022/09/24 04:05:50;;;;;;;4.82;1.30;;;15.80;75.00;;;;;;5073368;28;20044;-65
2022/09/24 04:08:18;;;;;;;3.10;1.42;;;15.80;75.10;;;;;;5073120;28;20082;-64
2022/09/24 04:10:50;;;;;;;3.65;1.30;;;15.80;75.00;;;;;;5073088;28;20028;-64
2022/09/24 04:13:16;;;;;;;;;;;15.80;75.40;;;;;;5073974;28;20378;-65
2022/09/24 04:15:42;;;;;;;5.32;1.80;;;15.80;75.40;;;;;;5073354;28;19904;-65
2022/09/24 04:18:08;;;;;;;5.82;1.92;;;15.80;75.40;;;;;;5073369;28;20386;-65
2022/09/24 04:20:35;;;;;;;2.97;1.55;;;15.80;75.60;;;;;;5073326;28;20039;-64
2022/09/24 04:23:01;;;;;;;2.35;1.60;;;15.80;75.70;;;;;;5072816;28;20039;-65
2022/09/24 04:25:29;;;;;;;4.65;1.90;;;15.80;75.80;;;;;;5072886;28;20473;-65
2022/09/24 04:28:00;;;;;;;3.30;1.73;;;15.70;75.80;;;;;;5073167;28;20468;-64
2022/09/24 04:30:27;;;;;;;4.22;1.60;;;15.70;75.80;;;;;;5073025;28;20077;-65
2022/09/24 04:32:53;;;;;;;8.68;6.05;;;15.70;75.80;;;;;;5073127;28;20028;-64
2022/09/24 04:35:21;;;;;;;5.57;2.80;;;15.70;75.80;;;;;;5072776;28;20386;-64
2022/09/24 04:37:47;;;;;;;4.43;2.00;;;15.70;75.60;;;;;;5073102;28;20029;-64
2022/09/24 04:40:13;;;;;;;2.83;1.60;;;15.70;75.50;;;;;;5073212;28;20025;-65
2022/09/24 04:42:39;;;;;;;6.75;1.50;;;15.70;75.60;;;;;;5073024;28;20052;-64
2022/09/24 04:45:06;;;;;;;3.03;1.48;;;15.70;75.80;;;;;;5073051;28;20539;-64
2022/09/24 04:47:33;;;;;;;8.95;2.50;;;15.80;75.90;;;;;;5072830;28;20478;-64
2022/09/24 04:50:01;;;;;;;8.55;2.10;;;15.80;75.90;;;;;;5072730;28;20035;-65
2022/09/24 04:52:30;;;;;;;3.83;1.65;;;15.80;75.70;;;;;;5072993;28;20493;-64
2022/09/24 04:54:56;;;;;;;6.82;1.67;;;15.80;75.50;;;;;;5072881;28;20025;-65
2022/09/24 04:57:23;;;;;;;7.55;1.75;;;15.80;75.50;;;;;;5072508;28;20052;-64
2022/09/24 04:59:48;;;;;;;6.32;1.75;;;15.80;75.40;;;;;;5072520;28;20505;-64
2022/09/24 05:02:14;;;;;;;3.28;1.88;;;15.80;75.40;;;;;;5072667;28;20028;-65
2022/09/24 05:04:40;;;;;;;6.57;1.80;;;15.80;75.50;;;;;;5073074;28;20032;-65
2022/09/24 05:07:05;;;;;;;5.25;1.98;;;15.80;75.70;;;;;;5072656;28;20040;-65
2022/09/24 05:09:31;;;;;;;7.00;1.90;;;15.80;75.70;;;;;;5072708;28;20440;-65
2022/09/24 05:12:01;;;;;;;6.07;2.08;;;15.80;75.70;;;;;;5072519;28;20434;-64
2022/09/24 05:14:26;;;;;;;6.93;1.90;;;15.80;75.80;;;;;;5072707;28;20600;-65
2022/09/24 05:16:52;;;;;;;4.45;1.42;;;15.80;75.70;;;;;;5072602;28;20111;-69
2022/09/24 05:19:18;;;;;;;4.50;1.50;;;15.70;75.80;;;;;;5071774;28;20029;-64
2022/09/24 05:21:45;;;;;;;4.82;2.35;;;15.70;76.40;;;;;;5072333;28;20065;-65
2022/09/24 05:24:11;;;;;;;4.47;1.90;;;15.80;76.50;;;;;;5070704;28;20123;-65
2022/09/24 05:29:21;;;;;;;4.22;1.60;;;15.70;76.20;;;;;;5072278;28;20035;-65
2022/09/24 05:31:46;;;;;;;10.85;1.60;;;15.80;76.50;;;;;;5072402;28;20029;-65
2022/09/24 05:34:13;;;;;;;5.15;2.10;;;15.70;76.80;;;;;;5072237;28;20490;-64
2022/09/24 05:36:39;;;;;;;3.67;1.98;;;15.70;76.90;;;;;;5072336;28;20474;-65
2022/09/24 05:39:05;;;;;;;5.05;1.70;;;15.70;77.00;;;;;;5071950;28;20116;-64
2022/09/24 05:41:31;;;;;;;2.58;1.73;;;15.70;77.30;;;;;;5072045;28;20078;-63
2022/09/24 05:43:57;;;;;;;6.00;2.33;;;15.70;77.50;;;;;;5072084;28;20024;-65
2022/09/24 05:46:23;;;;;;;6.70;1.73;;;15.60;77.60;;;;;;5071991;28;20037;-70
2022/09/24 05:48:48;;;;;;;4.25;2.03;;;15.70;77.70;;;;;;5070436;28;20390;-69
2022/09/24 05:51:14;;;;;;;6.82;2.17;;;15.70;77.80;;;;;;5071871;28;20078;-72
2022/09/24 05:53:40;;;;;;;5.43;1.88;;;15.70;77.90;;;;;;5073926;28;20461;-70
2022/09/24 05:56:06;;;;;;;10.10;1.95;;;15.70;78.20;;;;;;5074562;28;20106;-69
2022/09/24 05:58:31;;;;;;;5.00;1.75;;;15.70;78.30;;;;;;5074188;28;20397;-71
2022/09/24 06:01:00;;;;;;;5.20;2.00;;;15.70;78.70;;;;;;5074605;28;20029;-64
2022/09/24 06:03:28;;;;;;;6.88;1.90;;;15.70;79.20;;;;;;5075104;28;20028;-73
2022/09/24 06:05:55;;;;;;;2.53;1.60;;;15.80;78.90;;;;;;5074872;28;20406;-73
2022/09/24 06:08:21;;;;;;;8.63;1.90;;;15.80;78.90;;;;;;5075124;28;20413;-68
2022/09/24 06:10:47;;;;;;;2.70;1.55;;;15.80;78.60;;;;;;5074725;28;20033;-67
2022/09/24 06:13:16;;;;;;;5.80;1.83;;;15.80;78.20;;;;;;5074944;28;20044;-73
2022/09/24 06:15:43;;;;;;;4.05;1.92;;;15.90;77.80;;;;;;5074832;28;20405;-75
2022/09/24 06:18:10;;;;;;;9.73;2.38;;;15.90;77.60;;;;;;5074608;28;20025;-70
2022/09/24 06:20:36;;;;;;;5.25;2.00;;;15.90;77.60;;;;;;5074827;28;20039;-75
2022/09/24 06:23:02;;;;;;;5.78;2.13;;;15.90;77.80;;;;;;5073092;28;20028;-75
2022/09/24 06:25:29;;;;;;;6.47;2.10;;;15.90;78.00;;;;;;5074378;28;20047;-75
2022/09/24 06:28:02;;;;;;;7.43;2.08;;;15.90;78.00;;;;;;5015917;28;20076;-70
2022/09/24 06:30:40;;;;;;;6.25;2.15;;;16.00;77.90;;;;;;5034795;28;20064;-75
2022/09/24 06:33:10;;;;;;;5.03;2.47;;;16.00;77.60;;;;;;5034829;28;20025;-63
2022/09/24 06:35:37;;;;;;;9.32;2.40;;;16.00;77.30;;;;;;5034195;28;20049;-65
2022/09/24 06:38:04;;;;;;;4.20;1.92;;;16.00;77.20;;;;;;5033313;28;20108;-62
2022/09/24 06:40:31;;;;;;;5.93;2.10;;;16.00;77.10;;;;;;5034105;28;20464;-63
2022/09/24 06:42:57;;;;;;;6.63;2.00;;;16.10;77.00;;;;;;5034349;28;20483;-63
2022/09/24 06:45:24;;;;;;;3.33;1.70;;;16.10;76.90;;;;;;5034595;28;20064;-75
2022/09/24 06:47:58;;;;;;;5.70;1.77;;;16.00;76.80;;;;;;5034530;28;20091;-75
2022/09/24 06:50:27;;;;;;;3.92;1.85;;;16.10;76.70;;;;;;5034159;28;20422;-63
2022/09/24 06:52:53;;;;;;;2.92;1.60;;;16.10;76.60;;;;;;5033992;28;20458;-63
2022/09/24 06:55:20;;;;;;;5.70;1.80;;;16.20;76.60;;;;;;5034571;28;20028;-64
2022/09/24 06:57:45;;;;;;;3.25;1.75;;;16.10;76.40;;;;;;5034454;28;20030;-63
2022/09/24 07:00:13;;;;;;;8.70;2.22;;;16.20;76.20;;;;;;5034267;28;20048;-63
2022/09/24 07:02:39;;;;;;;5.95;1.80;;;16.20;75.90;;;;;;5034190;28;20475;-73
2022/09/24 07:05:06;;;;;;;6.43;1.80;;;16.20;75.70;;;;;;5034463;28;20030;-62
2022/09/24 07:07:32;;;;;;;5.57;1.98;;;16.20;75.70;;;;;;5034418;28;20052;-65
2022/09/24 07:10:02;;;;;;;3.00;1.65;;;16.20;75.80;;;;;;5034568;28;20056;-64
2022/09/24 07:12:30;;;;;;;4.10;2.00;;;16.20;76.10;;;;;;5034594;28;20037;-63
2022/09/24 07:14:56;;;;;;;3.83;1.90;;;16.20;76.20;;;;;;5032880;28;20426;-63
2022/09/24 07:17:23;;;;;;;6.70;2.00;;;16.30;76.30;;;;;;5033815;28;20156;-64
2022/09/24 07:19:49;;;;;;;5.53;1.67;;;16.30;76.30;;;;;;5033892;28;20071;-63
2022/09/24 07:22:14;;;;;;;6.00;1.90;;;16.30;76.60;;;;;;5033976;28;20535;-64
2022/09/24 07:27:29;;;;;;;8.75;2.25;;;16.30;76.10;;;;;;4673176;23;20507;-64
2022/09/24 07:29:55;;;;;;;5.82;1.60;;;16.40;76.00;;;;;;5014243;28;20026;-64
2022/09/24 07:32:21;;;;;;;10.25;1.80;;;16.40;75.60;;;;;;5014433;28;20022;-65
2022/09/24 07:34:47;;;;;;;5.88;1.77;;;16.40;75.60;;;;;;5014131;28;20431;-70
